sensor_id;sensor_type;location;lat;lon;timestamp;pressure;altitude;pressure_sealevel;temperature;humidity
11440;BME280;5776;51.814;4.510;2023-04-29T00:00:01;101634.00;;;10.95;100.00
11440;BME280;5776;51.814;4.510;2023-04-29T00:02:27;101629.38;;;10.95;100.00
11440;BME280;5776;51.814;4.510;2023-04-29T00:04:53;101628.56;;;10.95;100.00
11440;BME280;5776;51.814;4.510;2023-04-29T00:07:19;101629.91;;;10.92;100.00
11440;BME280;5776;51.814;4.510;2023-04-29T00:09:45;101635.09;;;10.94;100.00
11440;BME280;5776;51.814;4.510;2023-04-29T00:12:11;101637.25;;;10.92;100.00
11440;BME280;5776;51.814;4.510;2023-04-29T00:14:37;101624.47;;;10.92;100.00
11440;BME280;5776;51.814;4.510;2023-04-29T00:17:03;101632.38;;;10.94;100.00
11440;BME280;5776;51.814;4.510;2023-04-29T00:19:29;101630.72;;;10.93;100.00
11440;BME280;5776;51.814;4.510;2023-04-29T00:21:56;101630.47;;;10.89;100.00
11440;BME280;5776;51.814;4.510;2023-04-29T00:24:22;101627.75;;;10.94;100.00
11440;BME280;5776;51.814;4.510;2023-04-29T00:26:47;101634.00;;;10.90;100.00
11440;BME280;5776;51.814;4.510;2023-04-29T00:29:13;101638.31;;;10.91;100.00
11440;BME280;5776;51.814;4.510;2023-04-29T00:31:38;101635.91;;;10.89;100.00
11440;BME280;5776;51.814;4.510;2023-04-29T00:34:04;101638.06;;;10.87;100.00
11440;BME280;5776;51.814;4.510;2023-04-29T00:36:31;101641.03;;;10.86;100.00
11440;BME280;5776;51.814;4.510;2023-04-29T00:38:57;101640.22;;;10.85;100.00
11440;BME280;5776;51.814;4.510;2023-04-29T00:41:24;101643.25;;;10.84;100.00
11440;BME280;5776;51.814;4.510;2023-04-29T00:43:50;101648.66;;;10.84;100.00
11440;BME280;5776;51.814;4.510;2023-04-29T00:46:17;101646.22;;;10.82;100.00
11440;BME280;5776;51.814;4.510;2023-04-29T00:48:43;101647.84;;;10.83;100.00
11440;BME280;5776;51.814;4.510;2023-04-29T00:51:10;101643.50;;;10.82;100.00
11440;BME280;5776;51.814;4.510;2023-04-29T00:53:36;101647.31;;;10.81;100.00
11440;BME280;5776;51.814;4.510;2023-04-29T00:56:03;101652.47;;;10.82;100.00
11440;BME280;5776;51.814;4.510;2023-04-29T00:58:32;101651.66;;;10.82;100.00
11440;BME280;5776;51.814;4.510;2023-04-29T01:01:00;101650.53;;;10.78;100.00
11440;BME280;5776;51.814;4.510;2023-04-29T01:03:29;101651.66;;;10.82;100.00
11440;BME280;5776;51.814;4.510;2023-04-29T01:06:10;101659.25;;;10.80;100.00
11440;BME280;5776;51.814;4.510;2023-04-29T01:08:51;101660.06;;;10.80;100.00
11440;BME280;5776;51.814;4.510;2023-04-29T01:11:30;101667.41;;;10.80;100.00
11440;BME280;5776;51.814;4.510;2023-04-29T01:13:59;101667.69;;;10.78;100.00
11440;BME280;5776;51.814;4.510;2023-04-29T01:16:39;101672.81;;;10.75;100.00
11440;BME280;5776;51.814;4.510;2023-04-29T01:19:15;101674.72;;;10.74;100.00
11440;BME280;5776;51.814;4.510;2023-04-29T01:21:45;101672.81;;;10.75;100.00
11440;BME280;5776;51.814;4.510;2023-04-29T01:24:14;101669.84;;;10.71;100.00
11440;BME280;5776;51.814;4.510;2023-04-29T01:26:47;101677.72;;;10.73;100.00
11440;BME280;5776;51.814;4.510;2023-04-29T01:29:34;101678.25;;;10.70;100.00
11440;BME280;5776;51.814;4.510;2023-04-29T01:32:04;101686.16;;;10.71;100.00
11440;BME280;5776;51.814;4.510;2023-04-29T01:34:58;101687.50;;;10.69;100.00
11440;BME280;5776;51.814;4.510;2023-04-29T01:37:51;101682.06;;;10.69;100.00
11440;BME280;5776;51.814;4.510;2023-04-29T01:40:37;101683.13;;;10.68;100.00
11440;BME280;5776;51.814;4.510;2023-04-29T01:43:09;101683.41;;;10.66;100.00
11440;BME280;5776;51.814;4.510;2023-04-29T01:45:38;101683.66;;;10.65;100.00
11440;BME280;5776;51.814;4.510;2023-04-29T01:48:08;101691.28;;;10.63;100.00
11440;BME280;5776;51.814;4.510;2023-04-29T01:50:35;101695.63;;;10.64;100.00
11440;BME280;5776;51.814;4.510;2023-04-29T01:53:01;101695.63;;;10.64;100.00
11440;BME280;5776;51.814;4.510;2023-04-29T01:55:27;101696.16;;;10.60;100.00
11440;BME280;5776;51.814;4.510;2023-04-29T01:57:52;101691.81;;;10.59;100.00
11440;BME280;5776;51.814;4.510;2023-04-29T02:00:18;101699.69;;;10.61;100.00
11440;BME280;5776;51.814;4.510;2023-04-29T02:02:44;101695.63;;;10.58;100.00
11440;BME280;5776;51.814;4.510;2023-04-29T02:05:10;101696.13;;;10.55;100.00
11440;BME280;5776;51.814;4.510;2023-04-29T02:07:36;101705.66;;;10.58;100.00
11440;BME280;5776;51.814;4.510;2023-04-29T02:10:02;101704.84;;;10.57;100.00
11440;BME280;5776;51.814;4.510;2023-04-29T02:12:27;101707.84;;;10.56;100.00
11440;BME280;5776;51.814;4.510;2023-04-29T02:14:53;101707.84;;;10.56;100.00
11440;BME280;5776;51.814;4.510;2023-04-29T02:17:19;101712.44;;;10.55;100.00
11440;BME280;5776;51.814;4.510;2023-04-29T02:19:44;101714.34;;;10.55;100.00
11440;BME280;5776;51.814;4.510;2023-04-29T02:22:10;101724.63;;;10.53;100.00
11440;BME280;5776;51.814;4.510;2023-04-29T02:24:37;101718.41;;;10.52;100.00
11440;BME280;5776;51.814;4.510;2023-04-29T02:27:03;101729.53;;;10.51;100.00
11440;BME280;5776;51.814;4.510;2023-04-29T02:29:31;101720.56;;;10.50;100.00
11440;BME280;5776;51.814;4.510;2023-04-29T02:31:58;101725.19;;;10.50;100.00
11440;BME280;5776;51.814;4.510;2023-04-29T02:34:24;101729.81;;;10.49;100.00
11440;BME280;5776;51.814;4.510;2023-04-29T02:36:49;101727.09;;;10.49;100.00
11440;BME280;5776;51.814;4.510;2023-04-29T02:39:15;101732.22;;;10.46;100.00
11440;BME280;5776;51.814;4.510;2023-04-29T02:41:41;101728.19;;;10.48;100.00
11440;BME280;5776;51.814;4.510;2023-04-29T02:44:07;101734.44;;;10.49;100.00
11440;BME280;5776;51.814;4.510;2023-04-29T02:46:33;101735.50;;;10.48;100.00
11440;BME280;5776;51.814;4.510;2023-04-29T02:49:01;101758.31;;;10.47;100.00
11440;BME280;5776;51.814;4.510;2023-04-29T02:51:27;101744.97;;;10.45;100.00
11440;BME280;5776;51.814;4.510;2023-04-29T02:53:53;101756.66;;;10.46;100.00
11440;BME280;5776;51.814;4.510;2023-04-29T02:56:20;101744.97;;;10.45;100.00
11440;BME280;5776;51.814;4.510;2023-04-29T02:58:45;101751.50;;;10.44;100.00
11440;BME280;5776;51.814;4.510;2023-04-29T03:01:11;101760.72;;;10.43;100.00
11440;BME280;5776;51.814;4.510;2023-04-29T03:03:37;101760.72;;;10.43;100.00
11440;BME280;5776;51.814;4.510;2023-04-29T03:06:03;101761.28;;;10.45;100.00
11440;BME280;5776;51.814;4.510;2023-04-29T03:08:29;101759.66;;;10.44;100.00
11440;BME280;5776;51.814;4.510;2023-04-29T03:10:55;101766.72;;;10.45;100.00
11440;BME280;5776;51.814;4.510;2023-04-29T03:13:21;101763.44;;;10.43;100.00
11440;BME280;5776;51.814;4.510;2023-04-29T03:15:47;101772.94;;;10.46;100.00
11440;BME280;5776;51.814;4.510;2023-04-29T03:18:13;101768.06;;;10.43;100.00
11440;BME280;5776;51.814;4.510;2023-04-29T03:20:38;101765.34;;;10.43;100.00
11440;BME280;5776;51.814;4.510;2023-04-29T03:23:05;101763.44;;;10.43;100.00
11440;BME280;5776;51.814;4.510;2023-04-29T03:25:30;101764.28;;;10.44;100.00
11440;BME280;5776;51.814;4.510;2023-04-29T03:27:56;101769.97;;;10.42;100.00
11440;BME280;5776;51.814;4.510;2023-04-29T03:30:22;101768.34;;;10.41;100.00
11440;BME280;5776;51.814;4.510;2023-04-29T03:32:48;101769.41;;;10.40;100.00
11440;BME280;5776;51.814;4.510;2023-04-29T03:35:14;101775.66;;;10.41;100.00
11440;BME280;5776;51.814;4.510;2023-04-29T03:37:40;101768.59;;;10.40;100.00
11440;BME280;5776;51.814;4.510;2023-04-29T03:40:09;101768.84;;;10.38;100.00
11440;BME280;5776;51.814;4.510;2023-04-29T03:42:35;101764.25;;;10.38;100.00
11440;BME280;5776;51.814;4.510;2023-04-29T03:45:02;101772.41;;;10.38;100.00
11440;BME280;5776;51.814;4.510;2023-04-29T03:47:28;101780.25;;;10.40;100.00
11440;BME280;5776;51.814;4.510;2023-04-29T03:49:53;101770.50;;;10.39;100.00
11440;BME280;5776;51.814;4.510;2023-04-29T03:52:19;101775.13;;;10.38;100.00
11440;BME280;5776;51.814;4.510;2023-04-29T03:54:46;101781.59;;;10.37;100.00
11440;BME280;5776;51.814;4.510;2023-04-29T03:57:12;101781.59;;;10.37;100.00
11440;BME280;5776;51.814;4.510;2023-04-29T03:59:37;101785.41;;;10.36;100.00
11440;BME280;5776;51.814;4.510;2023-04-29T04:02:03;101790.03;;;10.36;100.00
11440;BME280;5776;51.814;4.510;2023-04-29T04:04:29;101790.03;;;10.36;100.00
11440;BME280;5776;51.814;4.510;2023-04-29T04:06:55;101784.59;;;10.36;100.00
11440;BME280;5776;51.814;4.510;2023-04-29T04:09:21;101791.09;;;10.35;100.00
11440;BME280;5776;51.814;4.510;2023-04-29T04:11:47;101795.47;;;10.36;100.00
11440;BME280;5776;51.814;4.510;2023-04-29T04:14:13;101794.63;;;10.35;100.00
11440;BME280;5776;51.814;4.510;2023-04-29T04:16:38;101801.97;;;10.35;100.00
11440;BME280;5776;51.814;4.510;2023-04-29T04:19:04;101802.78;;;10.35;100.00
11440;BME280;5776;51.814;4.510;2023-04-29T04:21:30;101806.84;;;10.33;100.00
11440;BME280;5776;51.814;4.510;2023-04-29T04:23:56;101812.25;;;10.33;100.00
11440;BME280;5776;51.814;4.510;2023-04-29T04:26:22;101808.75;;;10.32;100.00
11440;BME280;5776;51.814;4.510;2023-04-29T04:28:48;101812.25;;;10.33;100.00
11440;BME280;5776;51.814;4.510;2023-04-29T04:31:14;101816.88;;;10.32;100.00
11440;BME280;5776;51.814;4.510;2023-04-29T04:33:41;101817.69;;;10.33;100.00
11440;BME280;5776;51.814;4.510;2023-04-29T04:36:07;101819.88;;;10.31;100.00
11440;BME280;5776;51.814;4.510;2023-04-29T04:38:32;101820.69;;;10.31;100.00
11440;BME280;5776;51.814;4.510;2023-04-29T04:40:58;101826.13;;;10.31;100.00
11440;BME280;5776;51.814;4.510;2023-04-29T04:43:25;101832.38;;;10.32;100.00
11440;BME280;5776;51.814;4.510;2023-04-29T04:45:51;101840.50;;;10.32;100.00
11440;BME280;5776;51.814;4.510;2023-04-29T04:48:18;101847.03;;;10.31;100.00
11440;BME280;5776;51.814;4.510;2023-04-29T04:50:44;101843.22;;;10.32;100.00
11440;BME280;5776;51.814;4.510;2023-04-29T04:53:10;101842.66;;;10.30;100.00
11440;BME280;5776;51.814;4.510;2023-04-29T04:55:35;101847.28;;;10.29;100.00
11440;BME280;5776;51.814;4.510;2023-04-29T04:58:01;101852.97;;;10.28;100.00
11440;BME280;5776;51.814;4.510;2023-04-29T05:00:27;101854.63;;;10.29;100.00
11440;BME280;5776;51.814;4.510;2023-04-29T05:02:53;101855.44;;;10.29;100.00
11440;BME280;5776;51.814;4.510;2023-04-29T05:05:19;101862.75;;;10.29;100.00
11440;BME280;5776;51.814;4.510;2023-04-29T05:07:45;101867.09;;;10.30;100.00
11440;BME280;5776;51.814;4.510;2023-04-29T05:10:12;101867.38;;;10.28;100.00
11440;BME280;5776;51.814;4.510;2023-04-29T05:12:39;101869.25;;;10.28;100.00
11440;BME280;5776;51.814;4.510;2023-04-29T05:15:05;101878.25;;;10.28;100.00
11440;BME280;5776;51.814;4.510;2023-04-29T05:17:31;101872.81;;;10.28;100.00
11440;BME280;5776;51.814;4.510;2023-04-29T05:19:57;101875.53;;;10.28;100.00
11440;BME280;5776;51.814;4.510;2023-04-29T05:22:23;101881.78;;;10.29;100.00
11440;BME280;5776;51.814;4.510;2023-04-29T05:24:49;101887.19;;;10.29;100.00
11440;BME280;5776;51.814;4.510;2023-04-29T05:27:17;101882.56;;;10.29;100.00
11440;BME280;5776;51.814;4.510;2023-04-29T05:29:43;101885.53;;;10.28;100.00
11440;BME280;5776;51.814;4.510;2023-04-29T05:32:09;101888.25;;;10.28;100.00
11440;BME280;5776;51.814;4.510;2023-04-29T05:34:35;101888.25;;;10.28;100.00
11440;BME280;5776;51.814;4.510;2023-04-29T05:37:01;101894.53;;;10.28;100.00
11440;BME280;5776;51.814;4.510;2023-04-29T05:39:27;101899.13;;;10.28;100.00
11440;BME280;5776;51.814;4.510;2023-04-29T05:41:53;101905.59;;;10.27;100.00
11440;BME280;5776;51.814;4.510;2023-04-29T05:44:19;101901.84;;;10.28;100.00
11440;BME280;5776;51.814;4.510;2023-04-29T05:46:45;101911.34;;;10.30;100.00
11440;BME280;5776;51.814;4.510;2023-04-29T05:49:13;101907.03;;;10.29;100.00
11440;BME280;5776;51.814;4.510;2023-04-29T05:51:40;101914.34;;;10.29;100.00
11440;BME280;5776;51.814;4.510;2023-04-29T05:54:06;101917.88;;;10.29;100.00
11440;BME280;5776;51.814;4.510;2023-04-29T05:56:32;101922.50;;;10.29;100.00
11440;BME280;5776;51.814;4.510;2023-04-29T05:58:58;101926.03;;;10.29;100.00
11440;BME280;5776;51.814;4.510;2023-04-29T06:01:24;101932.28;;;10.30;100.00
11440;BME280;5776;51.814;4.510;2023-04-29T06:03:50;101934.97;;;10.30;100.00
11440;BME280;5776;51.814;4.510;2023-04-29T06:06:16;101931.22;;;10.31;100.00
11440;BME280;5776;51.814;4.510;2023-04-29T06:08:42;101934.72;;;10.31;100.00
11440;BME280;5776;51.814;4.510;2023-04-29T06:11:08;101932.84;;;10.32;100.00
11440;BME280;5776;51.814;4.510;2023-04-29T06:13:33;101939.63;;;10.34;100.00
11440;BME280;5776;51.814;4.510;2023-04-29T06:15:59;101941.53;;;10.34;100.00
11440;BME280;5776;51.814;4.510;2023-04-29T06:18:25;101948.34;;;10.36;100.00
11440;BME280;5776;51.814;4.510;2023-04-29T06:20:51;101947.53;;;10.36;100.00
11440;BME280;5776;51.814;4.510;2023-04-29T06:23:17;101944.25;;;10.34;100.00
11440;BME280;5776;51.814;4.510;2023-04-29T06:25:43;101955.94;;;10.34;100.00
11440;BME280;5776;51.814;4.510;2023-04-29T06:28:09;101963.84;;;10.36;100.00
11440;BME280;5776;51.814;4.510;2023-04-29T06:30:35;101960.03;;;10.37;100.00
11440;BME280;5776;51.814;4.510;2023-04-29T06:33:01;101962.75;;;10.37;100.00
11440;BME280;5776;51.814;4.510;2023-04-29T06:35:26;101973.66;;;10.42;100.00
11440;BME280;5776;51.814;4.510;2023-04-29T06:37:52;101969.31;;;10.41;100.00
11440;BME280;5776;51.814;4.510;2023-04-29T06:40:18;101980.41;;;10.40;100.00
11440;BME280;5776;51.814;4.510;2023-04-29T06:42:44;101976.88;;;10.39;100.00
11440;BME280;5776;51.814;4.510;2023-04-29T06:45:11;101982.03;;;10.41;100.00
11440;BME280;5776;51.814;4.510;2023-04-29T06:47:37;101992.66;;;10.42;100.00
11440;BME280;5776;51.814;4.510;2023-04-29T06:50:03;101988.91;;;10.48;100.00
11440;BME280;5776;51.814;4.510;2023-04-29T06:52:29;101996.53;;;10.51;100.00
11440;BME280;5776;51.814;4.510;2023-04-29T06:54:56;102007.03;;;10.43;100.00
11440;BME280;5776;51.814;4.510;2023-04-29T06:57:21;102004.09;;;10.44;100.00
11440;BME280;5776;51.814;4.510;2023-04-29T06:59:48;102002.94;;;10.40;100.00
11440;BME280;5776;51.814;4.510;2023-04-29T07:02:14;101999.94;;;10.36;100.00
11440;BME280;5776;51.814;4.510;2023-04-29T07:04:40;102009.44;;;10.34;100.00
11440;BME280;5776;51.814;4.510;2023-04-29T07:07:06;102007.28;;;10.36;100.00
11440;BME280;5776;51.814;4.510;2023-04-29T07:09:32;102021.16;;;10.40;100.00
11440;BME280;5776;51.814;4.510;2023-04-29T07:11:58;102025.81;;;10.44;100.00
11440;BME280;5776;51.814;4.510;2023-04-29T07:14:24;102031.25;;;10.44;100.00
11440;BME280;5776;51.814;4.510;2023-04-29T07:16:53;102039.97;;;10.46;100.00
11440;BME280;5776;51.814;4.510;2023-04-29T07:19:19;102034.25;;;10.48;100.00
11440;BME280;5776;51.814;4.510;2023-04-29T07:21:45;102034.00;;;10.49;100.00
11440;BME280;5776;51.814;4.510;2023-04-29T07:24:12;102041.91;;;10.51;100.00
11440;BME280;5776;51.814;4.510;2023-04-29T07:26:38;102038.91;;;10.52;100.00
11440;BME280;5776;51.814;4.510;2023-04-29T07:29:04;102043.81;;;10.55;100.00
11440;BME280;5776;51.814;4.510;2023-04-29T07:31:29;102041.72;;;10.63;100.00
11440;BME280;5776;51.814;4.510;2023-04-29T07:33:55;102048.28;;;10.67;100.00
11440;BME280;5776;51.814;4.510;2023-04-29T07:36:24;102041.75;;;10.68;100.00
11440;BME280;5776;51.814;4.510;2023-04-29T07:38:50;102046.38;;;10.67;100.00
11440;BME280;5776;51.814;4.510;2023-04-29T07:41:16;102040.94;;;10.67;100.00
11440;BME280;5776;51.814;4.510;2023-04-29T07:43:42;102051.81;;;10.67;100.00
11440;BME280;5776;51.814;4.510;2023-04-29T07:46:08;102048.31;;;10.72;100.00
11440;BME280;5776;51.814;4.510;2023-04-29T07:48:37;102049.47;;;10.76;100.00
11440;BME280;5776;51.814;4.510;2023-04-29T07:51:04;102053.22;;;10.75;100.00
11440;BME280;5776;51.814;4.510;2023-04-29T07:53:31;102054.88;;;10.76;100.00
11440;BME280;5776;51.814;4.510;2023-04-29T07:55:57;102055.94;;;10.75;100.00
11440;BME280;5776;51.814;4.510;2023-04-29T07:58:23;102054.88;;;10.76;100.00
11440;BME280;5776;51.814;4.510;2023-04-29T08:00:49;102061.94;;;10.77;100.00
11440;BME280;5776;51.814;4.510;2023-04-29T08:03:15;102057.66;;;10.81;100.00
11440;BME280;5776;51.814;4.510;2023-04-29T08:05:41;102058.78;;;10.90;100.00
11440;BME280;5776;51.814;4.510;2023-04-29T08:08:09;102061.84;;;10.99;100.00
11440;BME280;5776;51.814;4.510;2023-04-29T08:10:36;102061.59;;;11.06;100.00
11440;BME280;5776;51.814;4.510;2023-04-29T08:13:05;102058.69;;;11.12;100.00
11440;BME280;5776;51.814;4.510;2023-04-29T08:15:31;102061.97;;;11.14;100.00
11440;BME280;5776;51.814;4.510;2023-04-29T08:17:58;102057.63;;;11.18;100.00
11440;BME280;5776;51.814;4.510;2023-04-29T08:20:24;102070.75;;;11.27;100.00
11440;BME280;5776;51.814;4.510;2023-04-29T08:22:50;102066.38;;;11.25;100.00
11440;BME280;5776;51.814;4.510;2023-04-29T08:25:16;102070.22;;;11.30;100.00
11440;BME280;5776;51.814;4.510;2023-04-29T08:27:41;102068.34;;;11.35;100.00
11440;BME280;5776;51.814;4.510;2023-04-29T08:30:10;102073.00;;;11.40;100.00
11440;BME280;5776;51.814;4.510;2023-04-29T08:32:36;102068.94;;;11.48;100.00
11440;BME280;5776;51.814;4.510;2023-04-29T08:35:02;102067.03;;;11.48;100.00
11440;BME280;5776;51.814;4.510;2023-04-29T08:37:28;102077.94;;;11.53;100.00
11440;BME280;5776;51.814;4.510;2023-04-29T08:39:54;102073.38;;;11.59;100.00
11440;BME280;5776;51.814;4.510;2023-04-29T08:42:33;102075.00;;;11.60;100.00
11440;BME280;5776;51.814;4.510;2023-04-29T08:45:01;102077.72;;;11.60;100.00
11440;BME280;5776;51.814;4.510;2023-04-29T08:47:32;102068.22;;;11.62;100.00
11440;BME280;5776;51.814;4.510;2023-04-29T08:50:02;102078.84;;;11.64;100.00
11440;BME280;5776;51.814;4.510;2023-04-29T08:52:31;102084.00;;;11.65;100.00
11440;BME280;5776;51.814;4.510;2023-04-29T08:55:01;102079.38;;;11.71;100.00
11440;BME280;5776;51.814;4.510;2023-04-29T08:57:29;102095.72;;;11.71;100.00
11440;BME280;5776;51.814;4.510;2023-04-29T08:59:58;102089.47;;;11.76;100.00
11440;BME280;5776;51.814;4.510;2023-04-29T09:02:25;102085.41;;;11.78;100.00
11440;BME280;5776;51.814;4.510;2023-04-29T09:07:24;102094.13;;;11.80;100.00
11440;BME280;5776;51.814;4.510;2023-04-29T09:09:51;102088.72;;;11.85;100.00
11440;BME280;5776;51.814;4.510;2023-04-29T09:12:18;102090.13;;;11.88;100.00
11440;BME280;5776;51.814;4.510;2023-04-29T09:14:44;102092.59;;;11.95;100.00
11440;BME280;5776;51.814;4.510;2023-04-29T09:17:10;102094.00;;;12.02;100.00
11440;BME280;5776;51.814;4.510;2023-04-29T09:19:35;102093.22;;;12.12;100.00
11440;BME280;5776;51.814;4.510;2023-04-29T09:22:03;102093.19;;;12.07;100.00
11440;BME280;5776;51.814;4.510;2023-04-29T09:24:30;102101.91;;;12.04;100.00
11440;BME280;5776;51.814;4.510;2023-04-29T09:26:57;102103.53;;;12.05;100.00
11440;BME280;5776;51.814;4.510;2023-04-29T09:29:23;102105.44;;;12.04;100.00
11440;BME280;5776;51.814;4.510;2023-04-29T09:31:50;102104.06;;;12.02;100.00
11440;BME280;5776;51.814;4.510;2023-04-29T09:34:30;102112.78;;;11.99;100.00
11440;BME280;5776;51.814;4.510;2023-04-29T09:36:55;102112.72;;;11.94;100.00
11440;BME280;5776;51.814;4.510;2023-04-29T09:39:24;102114.91;;;11.92;100.00
11440;BME280;5776;51.814;4.510;2023-04-29T09:44:17;102114.44;;;12.15;100.00
11440;BME280;5776;51.814;4.510;2023-04-29T09:46:54;102111.75;;;12.20;100.00
11440;BME280;5776;51.814;4.510;2023-04-29T09:49:22;102119.34;;;12.18;100.00
11440;BME280;5776;51.814;4.510;2023-04-29T09:51:54;102118.81;;;12.16;100.00
11440;BME280;5776;51.814;4.510;2023-04-29T09:54:24;102119.09;;;12.15;100.00
11440;BME280;5776;51.814;4.510;2023-04-29T09:56:51;102125.88;;;12.12;100.00
11440;BME280;5776;51.814;4.510;2023-04-29T09:59:18;102123.72;;;12.14;100.00
11440;BME280;5776;51.814;4.510;2023-04-29T10:01:52;102131.88;;;12.14;100.00
11440;BME280;5776;51.814;4.510;2023-04-29T10:04:19;102130.25;;;12.18;100.00
11440;BME280;5776;51.814;4.510;2023-04-29T10:06:48;102134.34;;;12.21;100.00
11440;BME280;5776;51.814;4.510;2023-04-29T10:09:15;102139.53;;;12.22;100.00
11440;BME280;5776;51.814;4.510;2023-04-29T10:11:43;102138.72;;;12.22;100.00
11440;BME280;5776;51.814;4.510;2023-04-29T10:14:14;102135.72;;;12.28;100.00
11440;BME280;5776;51.814;4.510;2023-04-29T10:16:46;102139.03;;;12.36;100.00
11440;BME280;5776;51.814;4.510;2023-04-29T10:19:52;102150.50;;;12.48;100.00
11440;BME280;5776;51.814;4.510;2023-04-29T10:22:42;102149.94;;;12.46;100.00
11440;BME280;5776;51.814;4.510;2023-04-29T10:25:10;102144.50;;;12.46;100.00
11440;BME280;5776;51.814;4.510;2023-04-29T10:27:38;102146.16;;;12.52;100.00
11440;BME280;5776;51.814;4.510;2023-04-29T10:30:06;102144.53;;;12.61;100.00
11440;BME280;5776;51.814;4.510;2023-04-29T10:32:33;102142.91;;;12.65;100.00
11440;BME280;5776;51.814;4.510;2023-04-29T10:35:00;102138.56;;;12.69;100.00
11440;BME280;5776;51.814;4.510;2023-04-29T10:37:26;102138.81;;;12.68;100.00
11440;BME280;5776;51.814;4.510;2023-04-29T10:40:03;102144.00;;;12.64;100.00
11440;BME280;5776;51.814;4.510;2023-04-29T10:42:41;102143.47;;;12.62;100.00
11440;BME280;5776;51.814;4.510;2023-04-29T10:45:27;102143.72;;;12.66;100.00
11440;BME280;5776;51.814;4.510;2023-04-29T10:50:34;102132.25;;;12.64;100.00
11440;BME280;5776;51.814;4.510;2023-04-29T10:53:04;102138.81;;;12.68;100.00
11440;BME280;5776;51.814;4.510;2023-04-29T10:55:32;102143.22;;;12.74;100.00
11440;BME280;5776;51.814;4.510;2023-04-29T10:58:02;102141.56;;;12.83;100.00
11440;BME280;5776;51.814;4.510;2023-04-29T11:00:30;102137.75;;;12.84;100.00
11440;BME280;5776;51.814;4.510;2023-04-29T11:02:58;102132.84;;;12.91;100.00
11440;BME280;5776;51.814;4.510;2023-04-29T11:05:34;102147.84;;;12.94;100.00
11440;BME280;5776;51.814;4.510;2023-04-29T11:08:22;102144.03;;;12.90;100.00
11440;BME280;5776;51.814;4.510;2023-04-29T11:10:52;102149.50;;;12.90;100.00
11440;BME280;5776;51.814;4.510;2023-04-29T11:13:30;102150.28;;;12.95;100.00
11440;BME280;5776;51.814;4.510;2023-04-29T11:16:07;102146.22;;;12.98;100.00
11440;BME280;5776;51.814;4.510;2023-04-29T11:18:35;102146.47;;;12.96;100.00
11440;BME280;5776;51.814;4.510;2023-04-29T11:23:36;102146.22;;;12.98;100.00
11440;BME280;5776;51.814;4.510;2023-04-29T11:26:03;102148.94;;;12.98;100.00
11440;BME280;5776;51.814;4.510;2023-04-29T11:28:30;102138.56;;;13.00;100.00
11440;BME280;5776;51.814;4.510;2023-04-29T11:30:57;102135.84;;;13.00;100.00
11440;BME280;5776;51.814;4.510;2023-04-29T11:33:25;102142.13;;;13.01;100.00
11440;BME280;5776;51.814;4.510;2023-04-29T11:35:55;102145.94;;;13.00;100.00
11440;BME280;5776;51.814;4.510;2023-04-29T11:38:29;102143.47;;;13.03;100.00
11440;BME280;5776;51.814;4.510;2023-04-29T11:40:56;102138.03;;;13.13;100.00
11440;BME280;5776;51.814;4.510;2023-04-29T11:43:23;102137.47;;;13.22;100.00
11440;BME280;5776;51.814;4.510;2023-04-29T11:45:50;102135.28;;;13.24;100.00
11440;BME280;5776;51.814;4.510;2023-04-29T11:48:20;102139.13;;;13.23;100.00
11440;BME280;5776;51.814;4.510;2023-04-29T11:50:47;102148.66;;;13.25;99.29
11440;BME280;5776;51.814;4.510;2023-04-29T11:53:14;102145.41;;;13.28;98.22
11440;BME280;5776;51.814;4.510;2023-04-29T11:55:41;102141.06;;;13.27;99.99
11440;BME280;5776;51.814;4.510;2023-04-29T11:58:08;102139.66;;;13.25;99.40
11440;BME280;5776;51.814;4.510;2023-04-29T12:00:34;102137.53;;;13.27;99.37
11440;BME280;5776;51.814;4.510;2023-04-29T12:03:00;102136.13;;;13.24;100.00
11440;BME280;5776;51.814;4.510;2023-04-29T12:05:26;102140.25;;;13.27;98.36
11440;BME280;5776;51.814;4.510;2023-04-29T12:07:55;102137.78;;;13.35;99.42
11440;BME280;5776;51.814;4.510;2023-04-29T12:10:21;102139.13;;;13.43;97.22
11440;BME280;5776;51.814;4.510;2023-04-29T12:12:47;102141.31;;;13.41;97.61
11440;BME280;5776;51.814;4.510;2023-04-29T12:15:13;102143.47;;;13.44;97.90
11440;BME280;5776;51.814;4.510;2023-04-29T12:17:40;102143.47;;;13.44;98.23
11440;BME280;5776;51.814;4.510;2023-04-29T12:20:07;102141.03;;;13.43;99.35
11440;BME280;5776;51.814;4.510;2023-04-29T12:22:35;102141.84;;;13.43;97.99
11440;BME280;5776;51.814;4.510;2023-04-29T12:25:05;102149.47;;;13.46;98.29
11440;BME280;5776;51.814;4.510;2023-04-29T12:27:32;102151.69;;;13.49;98.19
11440;BME280;5776;51.814;4.510;2023-04-29T12:30:01;102149.75;;;13.50;97.94
11440;BME280;5776;51.814;4.510;2023-04-29T12:32:26;102149.19;;;13.53;98.00
11440;BME280;5776;51.814;4.510;2023-04-29T12:34:53;102141.00;;;13.58;97.17
11440;BME280;5776;51.814;4.510;2023-04-29T12:37:22;102150.28;;;13.62;98.03
11440;BME280;5776;51.814;4.510;2023-04-29T12:39:49;102151.09;;;13.57;97.50
11440;BME280;5776;51.814;4.510;2023-04-29T12:42:15;102154.91;;;13.56;97.22
11440;BME280;5776;51.814;4.510;2023-04-29T12:44:44;102148.09;;;13.59;97.31
11440;BME280;5776;51.814;4.510;2023-04-29T12:47:11;102153.28;;;13.60;97.55
11440;BME280;5776;51.814;4.510;2023-04-29T12:49:45;102143.44;;;13.65;95.81
11440;BME280;5776;51.814;4.510;2023-04-29T12:52:12;102149.16;;;13.73;96.55
11440;BME280;5776;51.814;4.510;2023-04-29T12:54:38;102151.06;;;13.73;95.36
11440;BME280;5776;51.814;4.510;2023-04-29T12:57:11;102150.53;;;13.71;96.41
11440;BME280;5776;51.814;4.510;2023-04-29T12:59:37;102144.50;;;13.74;96.57
11440;BME280;5776;51.814;4.510;2023-04-29T13:02:04;102150.50;;;13.76;96.04